createdAt,value
2018-07-17T00:00:36.359Z,3.63
2018-07-17T00:03:04.815Z,3.53
2018-07-17T00:05:33.287Z,4.00
2018-07-17T00:08:01.817Z,4.37
2018-07-17T00:10:30.279Z,3.73
2018-07-17T00:12:58.936Z,3.87
2018-07-17T00:15:27.691Z,3.37
2018-07-17T00:17:56.168Z,3.53
2018-07-17T00:20:24.663Z,4.13
2018-07-17T00:22:53.051Z,3.93
2018-07-17T00:25:21.599Z,3.50
2018-07-17T00:27:50.036Z,3.77
2018-07-17T00:30:18.557Z,3.60
2018-07-17T00:32:47.055Z,3.70
2018-07-17T00:35:15.524Z,2.83
2018-07-17T00:37:44.104Z,3.57
2018-07-17T00:40:12.607Z,3.97
2018-07-17T00:42:41.113Z,3.90
2018-07-17T00:45:09.639Z,3.60
2018-07-17T00:47:38.086Z,4.53
2018-07-17T00:50:06.631Z,3.70
2018-07-17T00:52:35.072Z,3.80
2018-07-17T00:55:03.623Z,3.57
2018-07-17T00:57:32.035Z,3.53
2018-07-17T01:00:00.548Z,3.70
2018-07-17T01:02:34.237Z,3.57
2018-07-17T01:05:07.883Z,3.53
2018-07-17T01:07:41.711Z,4.50
2018-07-17T01:10:15.446Z,4.27
2018-07-17T01:12:43.159Z,3.10
2018-07-17T01:15:15.939Z,4.40
2018-07-17T01:17:44.524Z,4.00
2018-07-17T01:20:13.032Z,3.97
2018-07-17T01:22:41.656Z,4.60
2018-07-17T01:25:10.182Z,3.90
2018-07-17T01:27:38.620Z,3.90
2018-07-17T01:30:07.147Z,4.60
2018-07-17T01:32:35.595Z,3.93
2018-07-17T01:35:04.131Z,3.70
2018-07-17T01:37:32.540Z,4.10
2018-07-17T01:40:01.044Z,4.70
2018-07-17T01:42:29.565Z,4.30
2018-07-17T01:44:58.019Z,4.60
2018-07-17T01:47:26.599Z,3.70
2018-07-17T01:49:55.074Z,3.87
2018-07-17T01:52:23.501Z,3.93
2018-07-17T01:54:51.955Z,4.03
2018-07-17T01:57:20.425Z,4.00
2018-07-17T01:59:48.940Z,5.50
2018-07-17T02:02:17.331Z,4.07
2018-07-17T02:04:45.821Z,5.07
2018-07-17T02:07:14.284Z,4.17
2018-07-17T02:09:42.792Z,3.50
2018-07-17T02:12:11.435Z,4.00
2018-07-17T02:14:39.855Z,4.67
2018-07-17T02:17:08.399Z,4.00
2018-07-17T02:19:36.863Z,3.80
2018-07-17T02:22:05.319Z,4.30
2018-07-17T02:24:33.886Z,4.77
2018-07-17T02:27:02.327Z,5.40
2018-07-17T02:29:30.811Z,5.27
2018-07-17T02:31:59.271Z,4.40
2018-07-17T02:34:27.715Z,4.70
2018-07-17T02:36:56.263Z,4.40
2018-07-17T02:39:24.694Z,4.93
2018-07-17T02:41:53.196Z,5.57
2018-07-17T02:44:21.795Z,5.27
2018-07-17T02:46:50.288Z,5.50
2018-07-17T02:49:18.724Z,4.53
2018-07-17T02:51:47.159Z,6.23
2018-07-17T02:54:15.667Z,4.90
2018-07-17T02:56:44.099Z,5.67
2018-07-17T02:59:12.573Z,5.10
2018-07-17T03:01:41.008Z,4.47
2018-07-17T03:04:09.427Z,5.40
2018-07-17T03:06:37.976Z,4.37
2018-07-17T03:09:07.328Z,5.00
2018-07-17T03:11:35.979Z,5.53
2018-07-17T03:14:04.715Z,5.10
2018-07-17T03:16:33.119Z,4.53
2018-07-17T03:19:01.642Z,4.83
2018-07-17T03:21:30.184Z,4.83
2018-07-17T03:23:58.716Z,5.07
2018-07-17T03:26:27.404Z,5.13
2018-07-17T03:28:55.919Z,5.57
2018-07-17T03:31:24.432Z,5.87
2018-07-17T03:33:52.903Z,4.90
2018-07-17T03:36:21.467Z,4.60
2018-07-17T03:38:50.167Z,4.17
2018-07-17T03:41:18.579Z,4.53
2018-07-17T03:43:47.067Z,5.50
2018-07-17T03:46:15.504Z,4.60
2018-07-17T03:48:43.947Z,4.33
2018-07-17T03:51:12.652Z,4.80
2018-07-17T03:53:41.147Z,5.10
2018-07-17T03:56:09.635Z,5.40
2018-07-17T03:58:38.059Z,4.43
2018-07-17T04:01:06.883Z,5.00
2018-07-17T04:03:35.519Z,5.20
2018-07-17T04:06:04.079Z,5.30
2018-07-17T04:08:32.540Z,5.40
2018-07-17T04:11:01.071Z,5.50
2018-07-17T04:13:29.640Z,4.90
2018-07-17T04:15:58.179Z,4.80
2018-07-17T04:18:26.637Z,5.47
2018-07-17T04:20:55.111Z,5.10
2018-07-17T04:23:23.631Z,4.63
2018-07-17T04:25:52.154Z,4.90
2018-07-17T04:28:20.635Z,4.50
2018-07-17T04:30:49.194Z,4.40
2018-07-17T04:33:17.659Z,5.00
2018-07-17T04:35:46.107Z,4.93
2018-07-17T04:38:14.624Z,5.10
2018-07-17T04:40:43.099Z,5.20
2018-07-17T04:43:11.567Z,4.83
2018-07-17T04:45:40.020Z,4.87
2018-07-17T04:48:08.464Z,5.57
2018-07-17T04:50:36.973Z,4.70
2018-07-17T04:53:05.692Z,5.73
2018-07-17T04:55:34.227Z,5.50
2018-07-17T04:58:02.720Z,5.23
2018-07-17T05:00:31.223Z,4.37
2018-07-17T05:02:59.641Z,4.77
2018-07-17T05:05:28.121Z,4.50
2018-07-17T05:07:56.523Z,3.90
2018-07-17T05:10:24.991Z,4.20
2018-07-17T05:12:53.802Z,4.30
2018-07-17T05:15:22.189Z,4.60
2018-07-17T05:17:50.762Z,4.60
2018-07-17T05:20:19.287Z,5.13
2018-07-17T05:22:47.727Z,5.07
2018-07-17T05:25:16.184Z,4.50
2018-07-17T05:27:44.564Z,4.63
2018-07-17T05:30:13.211Z,5.50
2018-07-17T05:32:41.615Z,5.33
2018-07-17T05:35:10.194Z,4.40
2018-07-17T05:37:38.648Z,5.10
2018-07-17T05:40:07.140Z,5.40
2018-07-17T05:42:35.603Z,5.73
2018-07-17T05:45:04.152Z,5.30
2018-07-17T05:47:32.636Z,5.50
2018-07-17T05:50:01.140Z,5.33
2018-07-17T05:52:29.568Z,5.30
2018-07-17T05:54:58.159Z,5.43
2018-07-17T05:57:26.583Z,6.87
2018-07-17T05:59:55.063Z,5.33
2018-07-17T06:02:23.595Z,6.60
2018-07-17T06:04:52.119Z,5.67
2018-07-17T06:07:20.831Z,5.40
2018-07-17T06:09:49.243Z,5.77
2018-07-17T06:12:17.744Z,5.70
2018-07-17T06:14:46.171Z,5.50
2018-07-17T06:17:14.831Z,5.30
2018-07-17T06:19:43.360Z,5.90
2018-07-17T06:22:11.888Z,5.80
2018-07-17T06:24:40.460Z,5.10
2018-07-17T06:27:08.960Z,5.27
2018-07-17T06:29:37.335Z,4.93
2018-07-17T06:32:05.783Z,5.67
2018-07-17T06:34:34.275Z,4.63
2018-07-17T06:37:02.775Z,5.30
2018-07-17T06:39:31.204Z,5.57
2018-07-17T06:41:59.743Z,5.50
2018-07-17T06:44:28.376Z,5.10
2018-07-17T06:46:56.996Z,4.63
2018-07-17T06:49:25.472Z,4.70
2018-07-17T06:51:53.982Z,4.80
2018-07-17T06:54:22.364Z,5.17
2018-07-17T06:56:50.807Z,5.10
2018-07-17T06:59:19.243Z,5.47
2018-07-17T07:01:47.652Z,4.53
2018-07-17T07:04:16.084Z,5.37
2018-07-17T07:06:44.519Z,5.47
2018-07-17T07:09:13.039Z,4.30
2018-07-17T07:11:41.507Z,4.20
2018-07-17T07:14:10.012Z,4.63
2018-07-17T07:16:38.566Z,4.50
2018-07-17T07:19:07.139Z,4.00
2018-07-17T07:21:35.614Z,4.27
2018-07-17T07:24:04.131Z,4.60
2018-07-17T07:26:32.673Z,4.00
2018-07-17T07:29:01.180Z,3.97
2018-07-17T07:31:29.627Z,4.30
2018-07-17T07:33:58.099Z,3.57
2018-07-17T07:36:26.516Z,4.20
2018-07-17T07:38:55.023Z,4.10
2018-07-17T07:41:23.551Z,4.33
2018-07-17T07:43:52.039Z,4.37
2018-07-17T07:46:20.455Z,3.87
2018-07-17T07:48:48.875Z,2.80
2018-07-17T07:51:17.392Z,4.17
2018-07-17T07:53:45.920Z,3.90
2018-07-17T07:56:14.499Z,3.30
2018-07-17T07:58:43.028Z,3.20
2018-07-17T08:01:11.499Z,3.87
2018-07-17T08:03:39.941Z,3.70
2018-07-17T08:06:08.383Z,3.50
2018-07-17T08:08:36.852Z,3.63
2018-07-17T08:11:05.276Z,3.10
2018-07-17T08:13:33.764Z,3.37
2018-07-17T08:16:02.256Z,3.53
2018-07-17T08:18:30.751Z,3.23
2018-07-17T08:20:59.252Z,3.60
2018-07-17T08:23:27.708Z,2.67
2018-07-17T08:25:56.212Z,2.53
2018-07-17T08:28:24.994Z,3.33
2018-07-17T08:30:53.505Z,3.33
2018-07-17T08:33:22.049Z,2.70
2018-07-17T08:35:50.932Z,3.00
2018-07-17T08:38:19.414Z,3.20
2018-07-17T08:40:48.081Z,2.60
2018-07-17T08:43:16.766Z,2.87
2018-07-17T08:45:45.558Z,2.30
2018-07-17T08:48:14.171Z,2.97
2018-07-17T08:50:42.821Z,2.60
2018-07-17T08:53:11.412Z,2.77
2018-07-17T08:55:39.819Z,2.40
2018-07-17T08:58:08.208Z,2.07
2018-07-17T09:00:36.692Z,2.57
2018-07-17T09:03:05.175Z,2.33
2018-07-17T09:05:33.592Z,2.50
2018-07-17T09:08:02.064Z,3.20
2018-07-17T09:10:30.540Z,2.63
2018-07-17T09:12:58.984Z,2.37
2018-07-17T09:15:27.415Z,2.67
2018-07-17T09:17:55.848Z,2.53
2018-07-17T09:20:24.362Z,2.23
2018-07-17T09:22:52.811Z,2.03
2018-07-17T09:25:21.315Z,2.23
2018-07-17T09:27:49.751Z,2.13
2018-07-17T09:30:18.163Z,2.30
2018-07-17T09:32:46.591Z,2.53
2018-07-17T09:35:15.008Z,2.20
2018-07-17T09:37:43.484Z,2.17
2018-07-17T09:40:12.012Z,2.30
2018-07-17T09:42:40.467Z,2.03
2018-07-17T09:45:08.947Z,1.93
2018-07-17T09:47:37.389Z,2.00
2018-07-17T09:50:05.823Z,1.77
2018-07-17T09:52:34.340Z,2.40
2018-07-17T09:55:02.889Z,1.93
2018-07-17T09:57:31.343Z,2.00
2018-07-17T09:59:59.759Z,2.30
2018-07-17T10:02:30.403Z,2.70
2018-07-17T10:04:59.821Z,1.90
2018-07-17T10:07:28.541Z,2.00
2018-07-17T10:09:56.959Z,2.30
2018-07-17T10:12:25.907Z,2.00
2018-07-17T10:14:54.731Z,2.77
2018-07-17T10:17:23.175Z,2.70
2018-07-17T10:19:51.682Z,1.90
2018-07-17T10:22:20.119Z,2.50
2018-07-17T10:24:48.556Z,3.23
2018-07-17T10:27:16.984Z,1.90
2018-07-17T10:29:45.383Z,1.90
2018-07-17T10:32:13.875Z,2.00
2018-07-17T10:34:42.307Z,1.73
2018-07-17T10:37:10.795Z,2.70
2018-07-17T10:39:39.314Z,2.43
2018-07-17T10:42:07.810Z,1.67
2018-07-17T10:44:36.663Z,1.80
2018-07-17T10:47:05.107Z,2.20
2018-07-17T10:49:33.536Z,2.07
2018-07-17T10:52:02.091Z,2.47
2018-07-17T10:54:30.620Z,2.20
2018-07-17T10:56:59.080Z,1.60
2018-07-17T10:59:27.559Z,2.27
2018-07-17T11:01:56.061Z,1.80
2018-07-17T11:04:24.561Z,2.30
2018-07-17T11:06:53.031Z,1.77
2018-07-17T11:09:21.460Z,1.80
2018-07-17T11:11:50.147Z,1.80
2018-07-17T11:14:18.639Z,2.73
2018-07-17T11:16:47.051Z,2.03
2018-07-17T11:19:15.514Z,2.50
2018-07-17T11:21:44.010Z,2.23
2018-07-17T11:24:12.534Z,1.87
2018-07-17T11:26:41.004Z,1.93
2018-07-17T11:29:09.519Z,2.03
2018-07-17T11:31:38.006Z,2.20
2018-07-17T11:34:06.643Z,1.70
2018-07-17T11:36:35.205Z,2.60
2018-07-17T11:39:04.651Z,2.10
2018-07-17T11:41:33.088Z,1.90
2018-07-17T11:44:01.548Z,1.73
2018-07-17T11:46:30.103Z,1.87
2018-07-17T11:48:58.590Z,2.47
2018-07-17T11:51:27.407Z,2.37
2018-07-17T11:53:55.865Z,1.70
2018-07-17T11:56:24.404Z,2.10
2018-07-17T11:58:52.815Z,1.93
2018-07-17T12:01:21.339Z,2.30
2018-07-17T12:03:49.854Z,2.10
2018-07-17T12:06:18.360Z,2.47
2018-07-17T12:08:46.779Z,1.97
2018-07-17T12:11:15.344Z,1.80
2018-07-17T12:13:43.816Z,1.50
2018-07-17T12:16:12.303Z,1.90
2018-07-17T12:18:40.823Z,1.80
2018-07-17T12:21:09.316Z,2.00
2018-07-17T12:23:38.207Z,1.80
2018-07-17T12:26:06.755Z,1.67
2018-07-17T12:28:35.305Z,1.80
2018-07-17T12:31:03.815Z,1.80
2018-07-17T12:33:32.736Z,2.63
2018-07-17T12:36:01.203Z,3.00
2018-07-17T12:38:29.631Z,2.50
2018-07-17T12:40:58.235Z,2.30
2018-07-17T12:43:26.703Z,2.10
2018-07-17T12:45:55.234Z,2.10
2018-07-17T12:48:23.808Z,2.40
2018-07-17T12:50:52.212Z,1.70
2018-07-17T12:53:20.671Z,1.93
2018-07-17T12:55:49.111Z,2.40
2018-07-17T12:58:17.552Z,2.10
2018-07-17T13:00:46.195Z,2.33
2018-07-17T13:03:14.629Z,2.40
2018-07-17T13:05:43.131Z,1.90
2018-07-17T13:08:11.619Z,1.97
2018-07-17T13:10:40.045Z,2.10
2018-07-17T13:13:08.502Z,2.43
2018-07-17T13:15:36.983Z,2.53
2018-07-17T13:18:05.380Z,2.00
2018-07-17T13:20:33.907Z,2.30
2018-07-17T13:23:02.317Z,2.00
2018-07-17T13:25:30.942Z,2.10
2018-07-17T13:27:59.347Z,1.50
2018-07-17T13:30:27.790Z,2.53
2018-07-17T13:32:56.239Z,1.70
2018-07-17T13:35:24.736Z,2.07
2018-07-17T13:37:53.247Z,2.07
2018-07-17T13:40:21.711Z,1.50
2018-07-17T13:42:50.136Z,2.20
2018-07-17T13:45:18.615Z,2.00
2018-07-17T13:47:47.122Z,2.07
2018-07-17T13:50:15.612Z,1.70
2018-07-17T13:52:44.060Z,1.63
2018-07-17T13:55:12.504Z,1.57
2018-07-17T13:57:40.999Z,2.93
2018-07-17T14:00:09.459Z,2.73
2018-07-17T14:02:38.038Z,2.90
2018-07-17T14:05:06.523Z,3.60
2018-07-17T14:07:35.055Z,2.83
2018-07-17T14:10:03.608Z,2.87
2018-07-17T14:12:32.036Z,1.73
2018-07-17T14:15:00.615Z,2.10
2018-07-17T14:17:29.175Z,2.33
2018-07-17T14:19:57.559Z,2.50
2018-07-17T14:22:26.064Z,2.40
2018-07-17T14:24:54.515Z,2.10
2018-07-17T14:27:23.295Z,3.10
2018-07-17T14:29:51.723Z,2.70
2018-07-17T14:32:20.219Z,2.43
2018-07-17T14:34:48.723Z,2.10
2018-07-17T14:37:17.203Z,2.10
2018-07-17T14:39:45.859Z,1.67
2018-07-17T14:42:14.295Z,2.17
2018-07-17T14:44:42.676Z,2.00
2018-07-17T14:47:11.207Z,2.37
2018-07-17T14:49:39.663Z,2.20
2018-07-17T14:52:08.179Z,2.00
2018-07-17T14:54:36.659Z,2.97
2018-07-17T14:57:05.519Z,2.60
2018-07-17T14:59:33.930Z,2.67
2018-07-17T15:02:02.436Z,2.10
2018-07-17T15:04:30.959Z,2.57
2018-07-17T15:06:59.431Z,3.33
2018-07-17T15:09:28.209Z,2.67
2018-07-17T15:11:56.722Z,2.40
2018-07-17T15:14:25.207Z,3.00
2018-07-17T15:16:53.656Z,2.07
2018-07-17T15:19:22.104Z,2.63
2018-07-17T15:21:50.635Z,2.90
2018-07-17T15:24:19.043Z,2.60
2018-07-17T15:26:47.472Z,2.40
2018-07-17T15:29:15.937Z,2.53
2018-07-17T15:31:44.411Z,2.40
2018-07-17T15:34:12.827Z,2.70
2018-07-17T15:36:41.260Z,2.30
2018-07-17T15:39:11.212Z,1.87
2018-07-17T15:41:40.156Z,1.73
2018-07-17T15:44:08.939Z,2.10
2018-07-17T15:46:37.857Z,1.57
2018-07-17T15:49:06.301Z,1.70
2018-07-17T15:51:34.767Z,2.20
2018-07-17T15:54:03.314Z,1.33
2018-07-17T15:56:31.771Z,1.47
2018-07-17T15:59:00.174Z,2.00
2018-07-17T16:01:28.592Z,1.97
2018-07-17T16:03:57.023Z,1.60
2018-07-17T16:06:25.472Z,1.90
2018-07-17T16:08:53.872Z,1.40
2018-07-17T16:11:22.803Z,2.17
2018-07-17T16:13:51.466Z,2.20
2018-07-17T16:16:19.651Z,1.80
2018-07-17T16:18:48.071Z,1.83
2018-07-17T16:21:16.593Z,1.83
2018-07-17T16:23:45.013Z,2.20
2018-07-17T16:26:13.440Z,2.40
2018-07-17T16:28:41.878Z,1.80
2018-07-17T16:31:10.399Z,2.97
2018-07-17T16:33:38.858Z,1.57
2018-07-17T16:36:07.561Z,1.93
2018-07-17T16:38:36.129Z,1.80
2018-07-17T16:41:04.547Z,2.13
2018-07-17T16:43:32.974Z,2.70
2018-07-17T16:46:01.474Z,1.97
2018-07-17T16:48:30.216Z,2.77
2018-07-17T16:50:58.764Z,2.57
2018-07-17T16:53:27.191Z,2.00
2018-07-17T16:55:55.692Z,2.43
2018-07-17T16:58:24.108Z,2.30
2018-07-17T17:00:52.623Z,2.37
2018-07-17T17:03:21.047Z,1.53
2018-07-17T17:05:49.505Z,2.40
2018-07-17T17:08:18.045Z,1.90
2018-07-17T17:10:46.495Z,2.03
2018-07-17T17:13:15.159Z,2.30
2018-07-17T17:15:43.619Z,2.27
2018-07-17T17:18:12.015Z,2.03
2018-07-17T17:20:40.436Z,1.87
2018-07-17T17:23:08.883Z,2.10
2018-07-17T17:25:37.523Z,2.67
2018-07-17T17:28:05.951Z,1.90
2018-07-17T17:30:34.347Z,2.40
2018-07-17T17:33:02.873Z,2.93
2018-07-17T17:35:31.322Z,2.80
2018-07-17T17:37:59.767Z,2.13
2018-07-17T17:40:28.230Z,2.47
2018-07-17T17:42:56.723Z,1.93
2018-07-17T17:45:25.283Z,2.17
2018-07-17T17:47:53.740Z,2.33
2018-07-17T17:50:22.299Z,1.90
2018-07-17T17:52:50.779Z,2.40
2018-07-17T17:55:19.267Z,1.93
2018-07-17T17:57:47.679Z,2.10
2018-07-17T18:00:16.179Z,2.40
2018-07-17T18:02:44.656Z,2.30
2018-07-17T18:05:13.047Z,2.30
2018-07-17T18:07:41.551Z,1.90
2018-07-17T18:10:10.051Z,2.60
2018-07-17T18:12:38.446Z,2.60
2018-07-17T18:15:06.944Z,2.10
2018-07-17T18:17:35.470Z,2.33
2018-07-17T18:20:04.080Z,2.67
2018-07-17T18:22:32.643Z,2.20
2018-07-17T18:25:01.099Z,2.73
2018-07-17T18:27:29.667Z,2.20
2018-07-17T18:29:58.208Z,2.33
2018-07-17T18:32:26.715Z,2.10
2018-07-17T18:34:55.223Z,2.03
2018-07-17T18:37:23.668Z,2.47
2018-07-17T18:39:52.298Z,2.47
2018-07-17T18:42:20.754Z,2.23
2018-07-17T18:44:49.255Z,2.70
2018-07-17T18:47:17.839Z,3.27
2018-07-17T18:49:46.340Z,2.70
2018-07-17T18:52:14.921Z,3.10
2018-07-17T18:54:43.635Z,1.93
2018-07-17T18:57:12.390Z,2.90
2018-07-17T18:59:41.572Z,2.30
2018-07-17T19:02:10.347Z,2.40
2018-07-17T19:04:38.800Z,2.70
2018-07-17T19:07:07.405Z,2.67
2018-07-17T19:09:35.879Z,2.67
2018-07-17T19:12:04.379Z,2.00
2018-07-17T19:14:33.256Z,2.30
2018-07-17T19:17:01.874Z,2.73
2018-07-17T19:19:30.376Z,2.80
2018-07-17T19:21:59.481Z,2.60
2018-07-17T19:24:28.118Z,3.43
2018-07-17T19:26:56.803Z,2.70
2018-07-17T19:29:25.337Z,2.57
2018-07-17T19:31:53.889Z,2.23
2018-07-17T19:34:22.805Z,2.53
2018-07-17T19:36:51.420Z,2.90
2018-07-17T19:39:20.063Z,3.20
2018-07-17T19:41:48.542Z,3.50
2018-07-17T19:44:17.056Z,2.73
2018-07-17T19:46:45.606Z,2.80
2018-07-17T19:49:14.123Z,3.17
2018-07-17T19:51:42.868Z,3.23
2018-07-17T19:54:11.745Z,3.27
2018-07-17T19:56:40.402Z,3.07
2018-07-17T19:59:09.331Z,3.60
2018-07-17T20:01:38.028Z,2.70
2018-07-17T20:04:06.979Z,2.60
2018-07-17T20:06:36.020Z,3.07
2018-07-17T20:09:06.559Z,2.80
2018-07-17T20:11:35.983Z,3.10
2018-07-17T20:14:04.902Z,3.40
2018-07-17T20:16:33.632Z,2.40
2018-07-17T20:19:03.297Z,3.00
2018-07-17T20:21:32.256Z,3.03
2018-07-17T20:24:01.968Z,2.70
2018-07-17T20:26:30.583Z,3.47
2018-07-17T20:28:59.231Z,2.87
2018-07-17T20:31:27.840Z,2.47
2018-07-17T20:33:56.233Z,2.47
2018-07-17T20:36:25.089Z,3.00
2018-07-17T20:38:53.671Z,2.60
2018-07-17T20:41:22.150Z,3.03
2018-07-17T20:43:50.796Z,2.37
2018-07-17T20:46:19.271Z,3.00
2018-07-17T20:48:48.575Z,2.57
2018-07-17T20:51:17.131Z,2.93
2018-07-17T20:53:46.127Z,2.63
2018-07-17T20:56:14.672Z,2.97
2018-07-17T20:58:43.138Z,1.90
2018-07-17T21:01:11.554Z,2.70
2018-07-17T21:03:39.996Z,2.50
2018-07-17T21:06:08.435Z,2.60
2018-07-17T21:08:36.901Z,2.63
2018-07-17T21:11:05.588Z,2.77
2018-07-17T21:13:34.255Z,2.30
2018-07-17T21:16:02.787Z,2.13
2018-07-17T21:18:31.195Z,2.30
2018-07-17T21:20:59.670Z,2.47
2018-07-17T21:23:28.168Z,2.33
2018-07-17T21:25:57.115Z,2.07
2018-07-17T21:28:25.535Z,2.43
2018-07-17T21:30:54.011Z,2.13
2018-07-17T21:33:22.554Z,2.17
2018-07-17T21:35:51.052Z,2.03
2018-07-17T21:38:19.691Z,2.13
2018-07-17T21:40:48.103Z,2.40
2018-07-17T21:43:16.595Z,2.30
2018-07-17T21:45:45.028Z,1.90
2018-07-17T21:48:13.471Z,1.60
2018-07-17T21:50:42.023Z,2.10
2018-07-17T21:53:10.442Z,1.97
2018-07-17T21:55:38.999Z,1.60
2018-07-17T21:58:07.487Z,1.80
2018-07-17T22:00:35.890Z,2.20
2018-07-17T22:03:04.363Z,2.37
2018-07-17T22:05:32.912Z,2.60
2018-07-17T22:08:01.316Z,2.57
2018-07-17T22:10:29.771Z,1.90
2018-07-17T22:12:58.254Z,2.10
2018-07-17T22:15:26.978Z,1.97
2018-07-17T22:17:55.331Z,2.07
2018-07-17T22:20:23.822Z,1.73
2018-07-17T22:22:52.336Z,2.10
2018-07-17T22:25:20.820Z,2.43
2018-07-17T22:27:49.330Z,1.83
2018-07-17T22:30:17.787Z,2.00
2018-07-17T22:32:46.278Z,1.87
2018-07-17T22:35:14.854Z,2.30
2018-07-17T22:37:43.362Z,1.93
2018-07-17T22:40:12.152Z,2.07
2018-07-17T22:42:40.626Z,2.70
2018-07-17T22:45:09.047Z,1.80
2018-07-17T22:47:37.584Z,2.70
2018-07-17T22:50:06.036Z,2.47
2018-07-17T22:52:34.571Z,2.13
2018-07-17T22:55:03.061Z,1.80
2018-07-17T22:57:31.503Z,2.87
2018-07-17T23:00:00.113Z,2.00
2018-07-17T23:02:28.635Z,2.27
2018-07-17T23:04:57.152Z,2.27
2018-07-17T23:07:25.562Z,2.50
2018-07-17T23:09:54.012Z,2.00
2018-07-17T23:12:22.536Z,2.97
2018-07-17T23:14:51.027Z,2.37
2018-07-17T23:17:19.481Z,2.50
2018-07-17T23:19:47.879Z,2.03
2018-07-17T23:22:20.867Z,2.23
2018-07-17T23:24:50.187Z,2.57
2018-07-17T23:27:18.574Z,2.20
2018-07-17T23:29:46.982Z,2.10
2018-07-17T23:32:15.352Z,1.87
2018-07-17T23:34:44.035Z,2.03
2018-07-17T23:37:12.459Z,2.10
2018-07-17T23:39:40.963Z,2.10
2018-07-17T23:42:09.458Z,1.90
2018-07-17T23:44:37.925Z,2.37
2018-07-17T23:47:06.633Z,2.47
2018-07-17T23:49:39.120Z,3.13
2018-07-17T23:52:08.295Z,2.47
2018-07-17T23:54:36.755Z,2.83
2018-07-17T23:57:05.217Z,2.07
2018-07-17T23:59:33.819Z,2.20
